sensor_id;sensor_type;location;lat;lon;timestamp;temperature;humidity
30467;DHT22;17258;52.560;13.046;2023-07-29T00:05:54;23.80;60.70
30467;DHT22;17258;52.560;13.046;2023-07-29T00:15:55;23.70;60.80
30467;DHT22;17258;52.560;13.046;2023-07-29T00:25:58;23.50;60.80
30467;DHT22;17258;52.560;13.046;2023-07-29T00:35:59;23.40;60.80
30467;DHT22;17258;52.560;13.046;2023-07-29T00:46:02;23.30;60.90
30467;DHT22;17258;52.560;13.046;2023-07-29T00:56:03;23.20;61.00
30467;DHT22;17258;52.560;13.046;2023-07-29T01:06:13;23.10;61.20
30467;DHT22;17258;52.560;13.046;2023-07-29T01:16:42;23.00;61.50
30467;DHT22;17258;52.560;13.046;2023-07-29T01:26:47;22.90;61.60
30467;DHT22;17258;52.560;13.046;2023-07-29T01:36:48;22.80;61.40
30467;DHT22;17258;52.560;13.046;2023-07-29T01:46:50;22.70;61.40
30467;DHT22;17258;52.560;13.046;2023-07-29T01:56:50;22.60;61.50
30467;DHT22;17258;52.560;13.046;2023-07-29T02:06:51;22.60;61.50
30467;DHT22;17258;52.560;13.046;2023-07-29T02:16:52;22.40;61.40
30467;DHT22;17258;52.560;13.046;2023-07-29T02:26:52;22.30;61.50
30467;DHT22;17258;52.560;13.046;2023-07-29T02:36:53;22.30;61.60
30467;DHT22;17258;52.560;13.046;2023-07-29T02:46:54;22.20;61.60
30467;DHT22;17258;52.560;13.046;2023-07-29T02:56:56;22.10;61.70
30467;DHT22;17258;52.560;13.046;2023-07-29T03:06:56;22.00;61.70
30467;DHT22;17258;52.560;13.046;2023-07-29T03:16:57;21.90;61.70
30467;DHT22;17258;52.560;13.046;2023-07-29T03:26:58;21.90;61.70
30467;DHT22;17258;52.560;13.046;2023-07-29T03:37:00;21.80;61.80
30467;DHT22;17258;52.560;13.046;2023-07-29T03:47:01;21.70;61.90
30467;DHT22;17258;52.560;13.046;2023-07-29T03:57:01;21.70;62.00
30467;DHT22;17258;52.560;13.046;2023-07-29T04:07:02;21.60;62.10
30467;DHT22;17258;52.560;13.046;2023-07-29T04:17:03;21.60;62.20
30467;DHT22;17258;52.560;13.046;2023-07-29T04:27:04;21.60;62.40
30467;DHT22;17258;52.560;13.046;2023-07-29T04:37:05;21.50;62.60
30467;DHT22;17258;52.560;13.046;2023-07-29T04:47:06;21.60;63.00
30467;DHT22;17258;52.560;13.046;2023-07-29T04:57:06;21.70;63.40
30467;DHT22;17258;52.560;13.046;2023-07-29T05:07:07;21.80;63.70
30467;DHT22;17258;52.560;13.046;2023-07-29T05:17:08;21.90;63.80
30467;DHT22;17258;52.560;13.046;2023-07-29T05:27:08;22.10;64.10
30467;DHT22;17258;52.560;13.046;2023-07-29T05:37:09;22.40;64.30
30467;DHT22;17258;52.560;13.046;2023-07-29T05:47:10;22.60;64.40
30467;DHT22;17258;52.560;13.046;2023-07-29T05:57:11;22.90;64.50
30467;DHT22;17258;52.560;13.046;2023-07-29T06:07:12;23.10;64.60
30467;DHT22;17258;52.560;13.046;2023-07-29T06:17:13;23.40;64.90
30467;DHT22;17258;52.560;13.046;2023-07-29T06:27:13;23.60;64.90
30467;DHT22;17258;52.560;13.046;2023-07-29T06:37:14;24.00;65.00
30467;DHT22;17258;52.560;13.046;2023-07-29T06:47:15;24.20;64.90
30467;DHT22;17258;52.560;13.046;2023-07-29T06:57:15;24.50;65.10
30467;DHT22;17258;52.560;13.046;2023-07-29T07:07:16;24.80;65.10
30467;DHT22;17258;52.560;13.046;2023-07-29T07:17:17;25.10;64.80
30467;DHT22;17258;52.560;13.046;2023-07-29T07:27:18;25.30;64.70
30467;DHT22;17258;52.560;13.046;2023-07-29T07:37:19;25.60;64.40
30467;DHT22;17258;52.560;13.046;2023-07-29T07:47:19;25.80;64.40
30467;DHT22;17258;52.560;13.046;2023-07-29T07:57:21;26.10;64.50
30467;DHT22;17258;52.560;13.046;2023-07-29T08:07:22;26.30;64.10
30467;DHT22;17258;52.560;13.046;2023-07-29T08:17:22;26.60;64.50
30467;DHT22;17258;52.560;13.046;2023-07-29T08:27:23;26.90;64.80
30467;DHT22;17258;52.560;13.046;2023-07-29T08:37:24;27.40;64.50
30467;DHT22;17258;52.560;13.046;2023-07-29T08:47:24;27.70;63.50
30467;DHT22;17258;52.560;13.046;2023-07-29T08:57:25;28.00;63.00
30467;DHT22;17258;52.560;13.046;2023-07-29T09:07:27;28.30;63.00
30467;DHT22;17258;52.560;13.046;2023-07-29T09:17:31;28.50;62.40
30467;DHT22;17258;52.560;13.046;2023-07-29T09:27:33;28.70;62.40
30467;DHT22;17258;52.560;13.046;2023-07-29T09:37:39;28.90;62.20
30467;DHT22;17258;52.560;13.046;2023-07-29T09:47:39;29.00;61.40
30467;DHT22;17258;52.560;13.046;2023-07-29T09:57:40;29.00;61.00
30467;DHT22;17258;52.560;13.046;2023-07-29T10:07:41;29.00;60.90
30467;DHT22;17258;52.560;13.046;2023-07-29T10:17:43;29.00;61.10
30467;DHT22;17258;52.560;13.046;2023-07-29T10:27:53;28.90;60.60
30467;DHT22;17258;52.560;13.046;2023-07-29T10:37:57;28.70;60.60
30467;DHT22;17258;52.560;13.046;2023-07-29T10:47:57;28.40;60.70
30467;DHT22;17258;52.560;13.046;2023-07-29T10:58:06;28.20;60.90
30467;DHT22;17258;52.560;13.046;2023-07-29T11:08:26;27.90;61.20
30467;DHT22;17258;52.560;13.046;2023-07-29T11:18:33;27.70;61.30
30467;DHT22;17258;52.560;13.046;2023-07-29T11:28:38;27.40;61.40
30467;DHT22;17258;52.560;13.046;2023-07-29T11:38:39;27.20;62.20
30467;DHT22;17258;52.560;13.046;2023-07-29T11:48:44;27.10;62.60
30467;DHT22;17258;52.560;13.046;2023-07-29T11:58:45;27.10;63.20
30467;DHT22;17258;52.560;13.046;2023-07-29T12:08:46;27.10;63.10
30467;DHT22;17258;52.560;13.046;2023-07-29T12:18:47;27.10;62.90
30467;DHT22;17258;52.560;13.046;2023-07-29T12:28:48;27.00;63.00
30467;DHT22;17258;52.560;13.046;2023-07-29T12:38:50;27.00;63.80
30467;DHT22;17258;52.560;13.046;2023-07-29T12:48:51;27.20;64.00
30467;DHT22;17258;52.560;13.046;2023-07-29T12:58:52;27.40;64.00
30467;DHT22;17258;52.560;13.046;2023-07-29T13:08:53;27.50;63.70
30467;DHT22;17258;52.560;13.046;2023-07-29T13:18:53;27.70;63.40
30467;DHT22;17258;52.560;13.046;2023-07-29T13:28:54;27.80;63.60
30467;DHT22;17258;52.560;13.046;2023-07-29T13:38:56;28.00;63.40
30467;DHT22;17258;52.560;13.046;2023-07-29T13:48:56;28.30;62.50
30467;DHT22;17258;52.560;13.046;2023-07-29T13:58:57;28.50;62.40
30467;DHT22;17258;52.560;13.046;2023-07-29T14:08:58;28.60;62.00
30467;DHT22;17258;52.560;13.046;2023-07-29T14:18:58;28.70;61.80
30467;DHT22;17258;52.560;13.046;2023-07-29T14:28:59;28.80;61.70
30467;DHT22;17258;52.560;13.046;2023-07-29T14:39:00;28.90;61.40
30467;DHT22;17258;52.560;13.046;2023-07-29T14:49:00;29.00;62.10
30467;DHT22;17258;52.560;13.046;2023-07-29T14:59:01;29.30;61.30
30467;DHT22;17258;52.560;13.046;2023-07-29T15:09:02;29.40;60.10
30467;DHT22;17258;52.560;13.046;2023-07-29T15:19:03;29.20;57.80
30467;DHT22;17258;52.560;13.046;2023-07-29T15:29:04;28.30;56.20
30467;DHT22;17258;52.560;13.046;2023-07-29T15:39:07;27.30;57.50
30467;DHT22;17258;52.560;13.046;2023-07-29T15:49:08;26.60;58.60
30467;DHT22;17258;52.560;13.046;2023-07-29T15:59:10;26.20;60.20
30467;DHT22;17258;52.560;13.046;2023-07-29T16:09:11;26.20;61.50
30467;DHT22;17258;52.560;13.046;2023-07-29T16:19:11;26.40;62.60
30467;DHT22;17258;52.560;13.046;2023-07-29T16:29:12;26.80;63.40
30467;DHT22;17258;52.560;13.046;2023-07-29T16:39:13;27.20;63.50
30467;DHT22;17258;52.560;13.046;2023-07-29T16:49:13;27.60;63.20
30467;DHT22;17258;52.560;13.046;2023-07-29T16:59:14;27.90;62.20
30467;DHT22;17258;52.560;13.046;2023-07-29T17:09:15;28.10;62.30
30467;DHT22;17258;52.560;13.046;2023-07-29T17:19:15;28.40;62.50
30467;DHT22;17258;52.560;13.046;2023-07-29T17:29:16;28.80;62.60
30467;DHT22;17258;52.560;13.046;2023-07-29T17:39:17;29.10;62.20
30467;DHT22;17258;52.560;13.046;2023-07-29T17:49:17;29.30;61.40
30467;DHT22;17258;52.560;13.046;2023-07-29T17:59:18;29.40;60.80
30467;DHT22;17258;52.560;13.046;2023-07-29T18:09:19;29.50;60.30
30467;DHT22;17258;52.560;13.046;2023-07-29T18:19:20;29.40;59.50
30467;DHT22;17258;52.560;13.046;2023-07-29T18:29:21;29.20;59.20
30467;DHT22;17258;52.560;13.046;2023-07-29T18:39:22;28.90;59.00
30467;DHT22;17258;52.560;13.046;2023-07-29T18:49:23;28.50;58.80
30467;DHT22;17258;52.560;13.046;2023-07-29T18:59:23;28.10;58.90
30467;DHT22;17258;52.560;13.046;2023-07-29T19:09:24;27.80;59.20
30467;DHT22;17258;52.560;13.046;2023-07-29T19:19:25;27.40;59.10
30467;DHT22;17258;52.560;13.046;2023-07-29T19:29:26;27.10;59.30
30467;DHT22;17258;52.560;13.046;2023-07-29T19:39:27;26.80;59.30
30467;DHT22;17258;52.560;13.046;2023-07-29T19:49:28;26.50;59.40
30467;DHT22;17258;52.560;13.046;2023-07-29T19:59:28;26.20;59.50
30467;DHT22;17258;52.560;13.046;2023-07-29T20:09:29;25.90;59.60
30467;DHT22;17258;52.560;13.046;2023-07-29T20:19:30;25.60;59.70
30467;DHT22;17258;52.560;13.046;2023-07-29T20:29:30;25.40;59.80
30467;DHT22;17258;52.560;13.046;2023-07-29T20:39:31;25.20;59.90
30467;DHT22;17258;52.560;13.046;2023-07-29T20:49:32;25.00;60.10
30467;DHT22;17258;52.560;13.046;2023-07-29T20:59:33;24.80;60.50
30467;DHT22;17258;52.560;13.046;2023-07-29T21:09:34;24.70;60.80
30467;DHT22;17258;52.560;13.046;2023-07-29T21:19:36;24.60;61.10
30467;DHT22;17258;52.560;13.046;2023-07-29T21:29:37;24.50;61.40
30467;DHT22;17258;52.560;13.046;2023-07-29T21:39:37;24.50;61.60
30467;DHT22;17258;52.560;13.046;2023-07-29T21:49:38;24.50;61.80
30467;DHT22;17258;52.560;13.046;2023-07-29T21:59:39;24.50;62.00
30467;DHT22;17258;52.560;13.046;2023-07-29T22:09:39;24.50;62.10
30467;DHT22;17258;52.560;13.046;2023-07-29T22:19:40;24.50;62.00
30467;DHT22;17258;52.560;13.046;2023-07-29T22:29:41;24.50;62.00
30467;DHT22;17258;52.560;13.046;2023-07-29T22:39:42;24.50;62.00
30467;DHT22;17258;52.560;13.046;2023-07-29T22:49:43;24.40;61.80
30467;DHT22;17258;52.560;13.046;2023-07-29T22:59:44;24.30;61.70
30467;DHT22;17258;52.560;13.046;2023-07-29T23:09:44;24.20;61.50
30467;DHT22;17258;52.560;13.046;2023-07-29T23:19:45;24.10;61.40
30467;DHT22;17258;52.560;13.046;2023-07-29T23:29:46;24.00;61.30
30467;DHT22;17258;52.560;13.046;2023-07-29T23:39:48;23.80;61.20
30467;DHT22;17258;52.560;13.046;2023-07-29T23:49:49;23.70;61.30
30467;DHT22;17258;52.560;13.046;2023-07-29T23:59:50;23.50;61.40
